createdAt,value
2018-12-27T00:04:39.711Z,5.10
2018-12-27T00:09:46.459Z,5.20
2018-12-27T00:14:52.510Z,5.30
2018-12-27T00:19:58.715Z,5.20
2018-12-27T00:25:04.948Z,5.30
2018-12-27T00:30:11.026Z,5.40
2018-12-27T00:35:17.097Z,5.30
2018-12-27T00:40:23.322Z,5.40
2018-12-27T00:45:29.564Z,5.40
2018-12-27T00:50:35.797Z,5.40
2018-12-27T00:55:42.004Z,5.40
2018-12-27T01:00:48.479Z,5.50
2018-12-27T01:05:54.657Z,5.40
2018-12-27T01:11:01.104Z,5.40
2018-12-27T01:16:08.039Z,5.40
2018-12-27T01:21:14.325Z,5.40
2018-12-27T01:26:20.487Z,5.40
2018-12-27T01:31:27.715Z,5.40
2018-12-27T01:36:33.905Z,5.50
2018-12-27T01:41:40.729Z,5.50
2018-12-27T01:46:47.158Z,5.50
2018-12-27T01:51:53.478Z,5.50
2018-12-27T01:56:59.701Z,5.50
2018-12-27T02:02:06.080Z,5.50
2018-12-27T02:07:12.427Z,5.50
2018-12-27T02:12:18.768Z,5.50
2018-12-27T02:17:25.017Z,5.60
2018-12-27T02:22:31.204Z,5.60
2018-12-27T02:27:38.610Z,5.60
2018-12-27T02:32:44.801Z,5.50
2018-12-27T02:37:50.964Z,5.50
2018-12-27T02:42:57.728Z,5.60
2018-12-27T02:48:03.909Z,5.60
2018-12-27T02:53:09.994Z,5.50
2018-12-27T02:58:16.308Z,5.50
2018-12-27T03:03:22.579Z,5.50
2018-12-27T03:08:28.893Z,5.60
2018-12-27T03:13:35.010Z,5.60
2018-12-27T03:18:41.146Z,5.60
2018-12-27T03:23:47.265Z,5.60
2018-12-27T03:28:53.465Z,5.60
2018-12-27T03:33:59.756Z,5.50
2018-12-27T03:39:07.325Z,5.40
2018-12-27T03:44:13.602Z,5.30
2018-12-27T03:49:19.844Z,5.20
2018-12-27T03:54:26.355Z,5.20
2018-12-27T03:59:32.497Z,5.10
2018-12-27T04:04:38.756Z,5.20
2018-12-27T04:09:44.923Z,5.20
2018-12-27T04:14:51.124Z,5.20
2018-12-27T04:19:57.165Z,5.20
2018-12-27T04:25:03.451Z,5.30
2018-12-27T04:30:09.521Z,5.40
2018-12-27T04:35:15.920Z,5.40
2018-12-27T04:40:22.005Z,5.50
2018-12-27T04:45:28.154Z,5.50
2018-12-27T04:50:34.241Z,5.50
2018-12-27T04:55:40.303Z,5.60
2018-12-27T05:00:46.417Z,5.60
2018-12-27T05:05:52.645Z,5.60
2018-12-27T05:10:58.783Z,5.60
2018-12-27T05:16:04.808Z,5.60
2018-12-27T05:21:10.877Z,5.70
2018-12-27T05:26:17.053Z,5.70
2018-12-27T05:31:23.143Z,5.80
2018-12-27T05:36:29.229Z,5.80
2018-12-27T05:41:35.303Z,5.90
2018-12-27T05:46:41.452Z,5.90
2018-12-27T05:51:47.646Z,5.90
2018-12-27T05:56:53.728Z,5.90
2018-12-27T06:01:59.922Z,5.90
2018-12-27T06:07:06.138Z,6.00
2018-12-27T06:12:12.317Z,5.90
2018-12-27T06:17:18.457Z,5.90
2018-12-27T06:22:24.526Z,5.90
2018-12-27T06:27:30.588Z,5.90
2018-12-27T06:32:36.730Z,5.90
2018-12-27T06:37:42.920Z,6.00
2018-12-27T06:42:49.029Z,6.00
2018-12-27T06:47:55.085Z,6.00
2018-12-27T06:53:01.121Z,5.90
2018-12-27T06:58:07.313Z,6.00
2018-12-27T07:03:13.328Z,6.00
2018-12-27T07:08:19.435Z,5.90
2018-12-27T07:13:25.691Z,5.80
2018-12-27T07:18:31.813Z,5.90
2018-12-27T07:23:37.933Z,6.00
2018-12-27T07:28:43.978Z,6.10
2018-12-27T07:33:50.081Z,6.10
2018-12-27T07:38:56.199Z,6.10
2018-12-27T07:44:02.384Z,6.20
2018-12-27T07:49:08.361Z,6.20
2018-12-27T07:54:14.389Z,6.30
2018-12-27T07:59:20.498Z,6.40
2018-12-27T08:04:27.633Z,6.40
2018-12-27T08:09:33.904Z,6.40
2018-12-27T08:14:40.070Z,6.40
2018-12-27T08:19:46.248Z,6.40
2018-12-27T08:24:52.375Z,6.40
2018-12-27T08:29:58.544Z,6.40
2018-12-27T08:35:11.232Z,6.40
2018-12-27T08:40:12.379Z,6.70
2018-12-27T08:45:19.013Z,6.70
2018-12-27T08:50:25.351Z,6.70
2018-12-27T08:55:31.349Z,6.90
2018-12-27T09:00:38.194Z,7.00
2018-12-27T09:05:44.416Z,7.00
2018-12-27T09:10:50.588Z,7.20
2018-12-27T09:15:57.127Z,7.20
2018-12-27T09:21:03.980Z,7.30
2018-12-27T09:26:10.186Z,7.40
2018-12-27T09:31:16.628Z,7.50
2018-12-27T09:36:22.687Z,7.50
2018-12-27T09:41:28.856Z,7.50
2018-12-27T09:46:35.198Z,7.40
2018-12-27T09:51:41.501Z,7.60
2018-12-27T09:56:47.738Z,7.70
2018-12-27T10:01:53.954Z,7.70
2018-12-27T10:07:19.047Z,7.80
2018-12-27T10:12:25.273Z,7.90
2018-12-27T10:17:31.620Z,8.00
2018-12-27T10:22:37.852Z,8.10
2018-12-27T10:27:44.120Z,8.20
2018-12-27T10:32:50.287Z,7.90
2018-12-27T10:37:56.425Z,7.70
2018-12-27T10:43:02.733Z,7.60
2018-12-27T10:48:08.908Z,7.90
2018-12-27T10:53:14.996Z,8.20
2018-12-27T10:58:21.184Z,8.30
2018-12-27T11:03:30.736Z,8.10
2018-12-27T11:08:35.691Z,7.80
2018-12-27T11:13:41.831Z,7.70
2018-12-27T11:18:47.945Z,7.80
2018-12-27T11:23:54.144Z,7.90
2018-12-27T11:29:00.401Z,7.60
2018-12-27T11:34:06.546Z,7.50
2018-12-27T11:39:12.992Z,7.40
2018-12-27T11:44:19.525Z,7.40
2018-12-27T11:49:25.844Z,7.40
2018-12-27T11:54:31.995Z,7.50
2018-12-27T11:59:38.222Z,7.50
2018-12-27T12:04:44.412Z,7.40
2018-12-27T12:09:50.781Z,7.20
2018-12-27T12:14:57.300Z,7.00
2018-12-27T12:20:03.994Z,6.90
2018-12-27T12:25:10.554Z,6.90
2018-12-27T12:30:16.907Z,6.90
2018-12-27T12:35:23.524Z,6.80
2018-12-27T12:40:29.840Z,6.90
2018-12-27T12:45:36.086Z,7.00
2018-12-27T12:50:42.436Z,7.00
2018-12-27T12:55:48.776Z,7.00
2018-12-27T13:00:55.177Z,7.10
2018-12-27T13:06:02.174Z,7.10
2018-12-27T13:11:08.320Z,7.00
2018-12-27T13:16:14.282Z,6.80
2018-12-27T13:21:20.284Z,6.70
2018-12-27T13:26:26.448Z,6.60
2018-12-27T13:31:32.597Z,6.40
2018-12-27T13:36:38.770Z,6.30
2018-12-27T13:41:44.879Z,6.30
2018-12-27T13:46:50.838Z,6.10
2018-12-27T13:51:56.971Z,6.10
2018-12-27T13:57:03.210Z,6.10
2018-12-27T14:02:09.372Z,6.20
2018-12-27T14:07:15.771Z,6.20
2018-12-27T14:12:21.928Z,6.30
2018-12-27T14:17:28.117Z,6.30
2018-12-27T14:22:34.628Z,6.20
2018-12-27T14:27:40.680Z,6.00
2018-12-27T14:32:46.739Z,5.90
2018-12-27T14:37:53.180Z,5.70
2018-12-27T14:42:59.263Z,5.70
2018-12-27T14:48:05.389Z,5.60
2018-12-27T14:53:11.547Z,5.40
2018-12-27T14:58:17.635Z,5.40
2018-12-27T15:03:23.760Z,5.20
2018-12-27T15:08:30.027Z,5.20
2018-12-27T15:13:36.170Z,5.10
2018-12-27T15:18:42.226Z,5.00
2018-12-27T15:23:48.595Z,5.00
2018-12-27T15:28:55.237Z,4.90
2018-12-27T15:34:01.478Z,4.90
2018-12-27T15:39:08.378Z,4.80
2018-12-27T15:44:14.543Z,4.80
2018-12-27T15:49:20.748Z,4.80
2018-12-27T15:54:26.861Z,4.90
2018-12-27T15:59:33.041Z,5.00
2018-12-27T16:04:39.258Z,5.00
2018-12-27T16:09:45.425Z,5.00
2018-12-27T16:14:51.543Z,5.10
2018-12-27T16:19:57.661Z,5.20
2018-12-27T16:25:03.671Z,5.20
2018-12-27T16:30:09.929Z,5.10
2018-12-27T16:35:16.094Z,5.10
2018-12-27T16:40:22.219Z,5.10
2018-12-27T16:45:28.297Z,5.10
2018-12-27T16:50:34.370Z,5.00
2018-12-27T16:55:40.499Z,4.80
2018-12-27T17:00:46.666Z,4.80
2018-12-27T17:05:52.771Z,4.70
2018-12-27T17:10:58.836Z,4.80
2018-12-27T17:16:05.109Z,4.80
2018-12-27T17:21:11.753Z,4.90
2018-12-27T17:26:17.913Z,4.90
2018-12-27T17:31:24.048Z,5.00
2018-12-27T17:36:30.340Z,5.00
2018-12-27T17:41:36.519Z,5.00
2018-12-27T17:46:42.698Z,5.00
2018-12-27T17:51:48.879Z,5.10
2018-12-27T17:56:55.147Z,5.20
2018-12-27T18:02:01.483Z,5.20
2018-12-27T18:07:07.587Z,5.20
2018-12-27T18:12:13.886Z,5.20
2018-12-27T18:17:19.988Z,5.20
2018-12-27T18:22:26.129Z,5.20
2018-12-27T18:27:32.310Z,5.20
2018-12-27T18:32:38.408Z,5.30
2018-12-27T18:37:44.564Z,5.30
2018-12-27T18:42:50.530Z,5.30
2018-12-27T18:47:57.045Z,5.40
2018-12-27T18:53:03.258Z,5.40
2018-12-27T18:58:10.159Z,5.40
2018-12-27T19:03:16.526Z,5.40
2018-12-27T19:08:22.585Z,5.50
2018-12-27T19:13:28.716Z,5.50
2018-12-27T19:18:39.936Z,5.50
2018-12-27T19:23:46.128Z,5.50
2018-12-27T19:28:52.233Z,5.50
2018-12-27T19:33:58.256Z,5.50
2018-12-27T19:39:04.940Z,5.40
2018-12-27T19:44:10.998Z,5.30
2018-12-27T19:49:17.071Z,5.40
2018-12-27T19:54:23.380Z,5.20
2018-12-27T19:59:29.501Z,5.20
2018-12-27T20:04:35.616Z,5.10
2018-12-27T20:09:41.762Z,4.90
2018-12-27T20:14:47.859Z,4.90
2018-12-27T20:19:53.933Z,4.80
2018-12-27T20:25:00.300Z,4.70
2018-12-27T20:30:07.295Z,4.80
2018-12-27T20:35:13.485Z,4.70
2018-12-27T20:40:19.582Z,4.60
2018-12-27T20:45:25.619Z,4.50
2018-12-27T20:50:31.865Z,4.60
2018-12-27T20:55:38.061Z,4.60
2018-12-27T21:00:44.183Z,4.60
2018-12-27T21:05:50.226Z,4.60
2018-12-27T21:10:56.400Z,4.70
2018-12-27T21:16:02.659Z,4.70
2018-12-27T21:21:08.870Z,4.70
2018-12-27T21:26:15.043Z,4.70
2018-12-27T21:31:21.211Z,4.70
2018-12-27T21:36:27.387Z,4.80
2018-12-27T21:41:33.482Z,4.80
2018-12-27T21:46:39.733Z,4.70
2018-12-27T21:51:45.819Z,4.90
2018-12-27T21:56:51.884Z,4.90
2018-12-27T22:01:57.946Z,5.10
2018-12-27T22:07:04.132Z,5.00
2018-12-27T22:12:10.080Z,5.10
2018-12-27T22:17:17.038Z,5.20
2018-12-27T22:22:23.158Z,5.30
2018-12-27T22:27:29.263Z,5.30
2018-12-27T22:32:35.336Z,5.30
2018-12-27T22:37:41.391Z,5.40
2018-12-27T22:42:47.561Z,5.50
2018-12-27T22:47:53.666Z,5.50
2018-12-27T22:52:59.761Z,5.60
2018-12-27T22:58:05.808Z,5.70
2018-12-27T23:03:11.976Z,5.70
2018-12-27T23:08:18.027Z,5.80
2018-12-27T23:13:24.055Z,5.80
2018-12-27T23:18:30.408Z,5.80
2018-12-27T23:23:36.589Z,5.80
2018-12-27T23:28:42.634Z,5.80
2018-12-27T23:33:48.641Z,5.80
2018-12-27T23:38:54.797Z,5.80
2018-12-27T23:44:00.926Z,5.70
2018-12-27T23:49:06.940Z,5.70
2018-12-27T23:54:13.025Z,5.70
2018-12-27T23:59:19.305Z,5.80
